Time;durP1;ratioP1;P1;durP2;ratioP2;P2;SDS_P1;SDS_P2;PMS_P1;PMS_P2;Temp;Humidity;BMP_temperature;BMP_pressure;BME280_temperature;BME280_humidity;BME280_pressure;Samples;Min_cycle;Max_cycle;Signal;HPM_P1;HPM_P2
2022/07/10 00:00:03;;;;;;;;;;;;;;;27.80;34.40;100025.38;5071564;28;889;-41
2022/07/10 00:02:29;;;;;;;;;;;;;;;27.74;34.73;100034.31;5074443;28;1083;-41
2022/07/10 00:04:54;;;;;;;;;;;;;;;27.70;35.02;100025.75;5070079;28;1155;-41
2022/07/10 00:07:19;;;;;;;;;;;;;;;27.73;34.71;100022.66;5067358;28;1059;-41
2022/07/10 00:09:44;;;;;;;;;;;;;;;27.68;34.37;100033.22;5066811;28;984;-41
2022/07/10 00:12:10;;;;;;;;;;;;;;;27.67;34.00;100030.72;5067385;28;762;-41
2022/07/10 00:14:35;;;;;;;;;;;;;;;27.62;34.00;100029.47;5070331;28;984;-41
2022/07/10 00:17:00;;;;;;;;;;;;;;;27.58;34.35;100021.94;5069051;28;1918;-41
2022/07/10 00:19:25;;;;;;;;;;;;;;;27.62;34.28;100021.38;5071801;28;1050;-43
2022/07/10 00:21:51;;;;;;;;;;;;;;;27.59;34.20;100018.22;5070592;28;1225;-43
2022/07/10 00:24:16;;;;;;;;;;;;;;;27.58;34.37;100016.56;5064851;28;1350;-41
2022/07/10 00:26:42;;;;;;;;;;;;;;;27.57;34.25;100021.13;5068496;28;1005;-43
2022/07/10 00:29:08;;;;;;;;;;;;;;;27.62;34.33;100025.94;5075254;28;1043;-43
2022/07/10 00:31:33;;;;;;;;;;;;;;;26.87;34.37;99895.25;5061680;28;1008;-43
2022/07/10 00:33:59;;;;;;;;;;;;;;;27.63;34.46;100011.38;5062148;28;1009;-40
2022/07/10 00:36:24;;;;;;;;;;;;;;;27.75;34.28;100011.63;5071900;28;1898;-41
2022/07/10 00:38:49;;;;;;;;;;;;;;;27.63;34.56;100000.56;5067686;28;1226;-41
2022/07/10 00:41:15;;;;;;;;;;;;;;;27.72;34.12;100001.25;5074752;28;972;-41
2022/07/10 00:43:57;;;;;;;;;;;;;;;27.68;34.58;100006.22;5072829;28;1122;-41
2022/07/10 00:46:22;;;;;;;;;;;;;;;27.65;34.31;100003.91;5067431;28;1205;-41
2022/07/10 00:48:48;;;;;;;;;;;;;;;27.63;34.67;100008.66;5064793;28;1127;-41
2022/07/10 00:51:14;;;;;;;;;;;;;;;27.61;34.45;100000.75;5077678;28;1024;-41
2022/07/10 00:53:39;;;;;;;;;;;;;;;27.65;34.56;100001.19;5077849;28;1162;-41
2022/07/10 00:56:05;;;;;;;;;;;;;;;27.66;34.81;99994.75;5063078;28;1951;-41
2022/07/10 00:58:30;;;;;;;;;;;;;;;27.66;34.41;99981.22;5075651;28;1087;-41
2022/07/10 01:00:56;;;;;;;;;;;;;;;27.60;35.29;99990.16;5063457;28;1135;-41
2022/07/10 01:03:21;;;;;;;;;;;;;;;27.57;35.15;99994.13;5076978;28;1008;-41
2022/07/10 01:05:46;;;;;;;;;;;;;;;27.65;34.77;99992.25;5078641;28;1019;-41
2022/07/10 01:08:12;;;;;;;;;;;;;;;27.61;34.64;99986.44;5067569;28;1012;-41
2022/07/10 01:10:37;;;;;;;;;;;;;;;27.63;34.44;99977.09;5071476;28;957;-41
2022/07/10 01:13:02;;;;;;;;;;;;;;;27.56;34.41;99981.63;5063717;28;972;-41
2022/07/10 01:15:28;;;;;;;;;;;;;;;27.54;34.53;99981.03;5072116;28;1961;-41
2022/07/10 01:17:53;;;;;;;;;;;;;;;27.50;33.91;99972.50;5064360;28;1067;-41
2022/07/10 01:20:18;;;;;;;;;;;;;;;27.59;34.06;99989.31;5072786;28;1116;-42
2022/07/10 01:22:44;;;;;;;;;;;;;;;27.55;34.17;99977.28;5076400;28;1008;-41
2022/07/10 01:25:10;;;;;;;;;;;;;;;27.54;33.82;99983.72;5066683;28;1216;-41
2022/07/10 01:27:36;;;;;;;;;;;;;;;27.57;34.07;99986.03;5077585;28;1011;-41
2022/07/10 01:30:01;;;;;;;;;;;;;;;27.57;33.79;99983.31;5062952;28;1057;-41
2022/07/10 01:32:26;;;;;;;;;;;;;;;27.55;34.26;99973.75;5067388;28;1066;-42
2022/07/10 01:34:52;;;;;;;;;;;;;;;27.60;34.54;99972.09;5071201;28;1288;-41
2022/07/10 01:37:17;;;;;;;;;;;;;;;27.59;34.41;99970.41;5061606;28;1898;-41
2022/07/10 01:39:42;;;;;;;;;;;;;;;27.61;35.13;99971.06;5073915;28;1047;-41
2022/07/10 01:42:08;;;;;;;;;;;;;;;27.60;35.05;99966.69;5071691;28;1229;-41
2022/07/10 01:44:33;;;;;;;;;;;;;;;27.56;35.24;99968.13;5075228;28;1000;-41
2022/07/10 01:46:58;;;;;;;;;;;;;;;27.58;35.39;99944.44;5074319;28;1182;-41
2022/07/10 01:49:23;;;;;;;;;;;;;;;27.48;35.33;99955.66;5070354;28;897;-41
2022/07/10 01:51:49;;;;;;;;;;;;;;;27.51;35.91;99965.19;5077222;28;1095;-41
2022/07/10 01:54:14;;;;;;;;;;;;;;;27.50;35.65;99966.25;5058419;28;1281;-41
2022/07/10 01:56:39;;;;;;;;;;;;;;;27.49;36.06;99973.50;5074824;28;1894;-41
2022/07/10 01:59:05;;;;;;;;;;;;;;;27.42;35.97;99969.16;5075948;28;1098;-41
2022/07/10 02:01:30;;;;;;;;;;;;;;;27.46;35.57;99965.81;5067610;28;1158;-41
2022/07/10 02:06:40;;;;;;;;;;;;;;;27.45;36.14;99963.31;5065371;28;1210;-41
2022/07/10 02:09:05;;;;;;;;;;;;;;;27.45;36.23;99964.16;5064022;28;1000;-41
2022/07/10 02:11:30;;;;;;;;;;;;;;;27.48;35.86;99969.16;5069576;28;1027;-41
2022/07/10 02:13:56;;;;;;;;;;;;;;;27.46;35.63;99973.13;5066193;28;850;-41
2022/07/10 02:16:21;;;;;;;;;;;;;;;27.52;35.41;99977.69;5072118;28;1906;-41
2022/07/10 02:18:47;;;;;;;;;;;;;;;27.46;35.88;99983.91;5073586;28;1051;-41
2022/07/10 02:21:12;;;;;;;;;;;;;;;27.56;35.21;99997.84;5072190;28;999;-42
2022/07/10 02:23:40;;;;;;;;;;;;;;;27.49;35.98;100014.03;5074220;28;1250;-41
2022/07/10 02:26:05;;;;;;;;;;;;;;;27.53;35.45;100024.47;5071450;28;973;-41
2022/07/10 02:28:31;;;;;;;;;;;;;;;27.60;35.08;100041.50;5066687;28;929;-41
2022/07/10 02:30:56;;;;;;;;;;;;;;;27.61;34.96;100049.41;5070333;28;1007;-41
2022/07/10 02:33:21;;;;;;;;;;;;;;;27.58;35.21;100051.66;5066142;28;1013;-41
2022/07/10 02:35:47;;;;;;;;;;;;;;;27.53;34.39;100073.09;5069379;28;1902;-41
2022/07/10 02:38:12;;;;;;;;;;;;;;;27.30;35.40;100071.50;5068814;28;937;-41
2022/07/10 02:40:37;;;;;;;;;;;;;;;27.25;35.63;100081.06;5070446;28;1150;-41
2022/07/10 02:43:03;;;;;;;;;;;;;;;27.45;35.52;100085.72;5074212;28;1075;-42
2022/07/10 02:45:28;;;;;;;;;;;;;;;27.51;35.63;100079.50;5072575;28;1182;-41
2022/07/10 02:47:54;;;;;;;;;;;;;;;27.48;36.06;100079.91;5075471;28;1027;-41
2022/07/10 02:50:19;;;;;;;;;;;;;;;27.39;36.33;100087.34;5060586;28;997;-43
2022/07/10 02:52:44;;;;;;;;;;;;;;;27.41;35.55;100089.03;5071641;28;980;-36
2022/07/10 02:55:10;;;;;;;;;;;;;;;26.71;36.65;100080.69;5063321;28;1953;-41
2022/07/10 02:57:35;;;;;;;;;;;;;;;26.46;36.39;100075.75;5069287;28;1187;-42
2022/07/10 03:00:00;;;;;;;;;;;;;;;26.39;37.12;100085.66;5075009;28;1125;-42
2022/07/10 03:02:26;;;;;;;;;;;;;;;26.53;37.17;100078.50;5057366;28;1191;-41
2022/07/10 03:04:51;;;;;;;;;;;;;;;26.44;36.50;100083.22;5065030;28;1427;-43
2022/07/10 03:07:17;;;;;;;;;;;;;;;26.43;36.26;100086.06;5071863;28;1146;-41
2022/07/10 03:09:42;;;;;;;;;;;;;;;26.30;36.30;100084.91;5070109;28;964;-43
2022/07/10 03:12:07;;;;;;;;;;;;;;;26.32;36.15;100082.88;5065567;28;1012;-40
2022/07/10 03:14:33;;;;;;;;;;;;;;;26.17;36.32;100086.44;5067492;28;1092;-43
2022/07/10 03:16:58;;;;;;;;;;;;;;;25.98;36.53;100087.09;5074022;28;1906;-43
2022/07/10 03:19:23;;;;;;;;;;;;;;;25.98;36.22;100087.94;5073970;28;1197;-43
2022/07/10 03:21:48;;;;;;;;;;;;;;;26.14;36.08;100089.53;5075944;28;1078;-41
2022/07/10 03:24:14;;;;;;;;;;;;;;;26.20;35.62;100089.78;5067142;28;1049;-41
2022/07/10 03:26:39;;;;;;;;;;;;;;;26.28;35.84;100081.56;5059714;28;909;-43
2022/07/10 03:29:04;;;;;;;;;;;;;;;26.33;35.13;100070.22;5070906;28;1083;-43
2022/07/10 03:31:30;;;;;;;;;;;;;;;26.33;35.38;100081.00;5057878;28;1055;-41
2022/07/10 03:33:55;;;;;;;;;;;;;;;26.41;35.29;100080.88;5072063;28;1071;-41
2022/07/10 03:36:20;;;;;;;;;;;;;;;26.39;34.88;100073.00;5059271;28;1964;-39
2022/07/10 03:38:46;;;;;;;;;;;;;;;26.52;34.86;100083.06;5065484;28;957;-40
2022/07/10 03:41:12;;;;;;;;;;;;;;;26.50;34.94;100074.34;5072990;28;1119;-43
2022/07/10 03:43:37;;;;;;;;;;;;;;;26.50;34.89;100077.03;5074595;28;1083;-43
2022/07/10 03:46:02;;;;;;;;;;;;;;;26.38;35.85;100075.88;5075126;28;1039;-43
2022/07/10 03:48:28;;;;;;;;;;;;;;;26.45;35.79;100082.19;5069457;28;1242;-43
2022/07/10 03:50:53;;;;;;;;;;;;;;;26.12;36.93;100086.22;5062386;28;1371;-42
2022/07/10 03:53:18;;;;;;;;;;;;;;;25.68;37.32;100083.47;5066238;28;987;-38
2022/07/10 03:55:44;;;;;;;;;;;;;;;25.72;37.31;100088.47;5060916;28;1931;-36
2022/07/10 03:58:09;;;;;;;;;;;;;;;26.11;36.88;100089.91;5068286;28;1266;-42
2022/07/10 04:00:37;;;;;;;;;;;;;;;26.48;35.54;100092.56;5065141;28;1258;-42
2022/07/10 04:03:04;;;;;;;;;;;;;;;26.82;35.23;100089.28;5064561;28;1234;-43
2022/07/10 04:05:29;;;;;;;;;;;;;;;26.77;35.26;100088.03;5057028;28;1319;-43
2022/07/10 04:07:56;;;;;;;;;;;;;;;27.00;35.01;100091.47;5062893;28;1207;-41
2022/07/10 04:10:22;;;;;;;;;;;;;;;26.99;34.46;100081.72;5060425;28;989;-42
2022/07/10 04:12:48;;;;;;;;;;;;;;;27.06;34.63;100085.31;5072862;28;1067;-38
2022/07/10 04:15:13;;;;;;;;;;;;;;;26.70;34.88;100089.84;5062471;28;1910;-39
2022/07/10 04:17:38;;;;;;;;;;;;;;;26.39;35.55;100086.47;5067829;28;1135;-40
2022/07/10 04:20:04;;;;;;;;;;;;;;;26.71;35.18;100079.88;5060300;28;1500;-40
2022/07/10 04:22:29;;;;;;;;;;;;;;;26.75;34.66;100079.28;5067827;28;997;-40
2022/07/10 04:24:55;;;;;;;;;;;;;;;26.84;34.60;100079.94;5070563;28;1210;-40
2022/07/10 04:27:20;;;;;;;;;;;;;;;26.96;34.76;100090.22;5061221;28;1142;-39
2022/07/10 04:29:46;;;;;;;;;;;;;;;27.06;34.86;100079.91;5068593;28;1012;-39
2022/07/10 04:32:11;;;;;;;;;;;;;;;26.98;34.87;100080.88;5060568;28;1201;-40
2022/07/10 04:34:36;;;;;;;;;;;;;;;27.02;34.57;100084.91;5068369;28;1123;-40
2022/07/10 04:37:02;;;;;;;;;;;;;;;27.20;33.89;100083.53;5069081;28;1897;-40
2022/07/10 04:39:27;;;;;;;;;;;;;;;27.08;34.19;100085.94;5063232;28;910;-40
2022/07/10 04:41:52;;;;;;;;;;;;;;;27.14;34.16;100084.34;5067057;28;1231;-41
2022/07/10 04:44:18;;;;;;;;;;;;;;;27.13;34.05;100086.19;5064339;28;1172;-39
2022/07/10 04:46:43;;;;;;;;;;;;;;;27.04;34.70;100086.56;5061877;28;1279;-40
2022/07/10 04:49:09;;;;;;;;;;;;;;;27.26;33.92;100090.81;5068755;28;1036;-40
2022/07/10 04:51:34;;;;;;;;;;;;;;;27.07;34.84;100087.00;5068861;28;890;-39
2022/07/10 04:54:00;;;;;;;;;;;;;;;27.00;34.70;100089.63;5063287;28;1060;-37
2022/07/10 04:56:25;;;;;;;;;;;;;;;27.12;34.37;100091.78;5059608;28;1894;-38
2022/07/10 04:58:50;;;;;;;;;;;;;;;27.18;34.45;100099.09;5060446;28;1555;-40
2022/07/10 05:01:16;;;;;;;;;;;;;;;27.42;34.01;100104.19;5063441;28;1174;-38
2022/07/10 05:03:41;;;;;;;;;;;;;;;27.45;33.76;100099.22;5071843;28;894;-36
2022/07/10 05:06:06;;;;;;;;;;;;;;;27.48;33.98;100101.53;5064757;28;1049;-37
2022/07/10 05:08:32;;;;;;;;;;;;;;;27.54;34.66;100104.44;5066313;28;1452;-38
2022/07/10 05:10:57;;;;;;;;;;;;;;;27.48;34.04;100100.69;5068624;28;1135;-38
2022/07/10 05:13:22;;;;;;;;;;;;;;;27.48;34.81;100092.56;5057780;28;974;-38
2022/07/10 05:15:48;;;;;;;;;;;;;;;27.43;34.59;100106.69;5064095;28;1910;-40
2022/07/10 05:18:13;;;;;;;;;;;;;;;27.45;34.95;100104.63;5065510;28;940;-39
2022/07/10 05:20:42;;;;;;;;;;;;;;;27.66;34.81;100112.81;5060013;28;1127;-40
2022/07/10 05:23:07;;;;;;;;;;;;;;;27.65;34.41;100120.06;5064573;28;1406;-39
2022/07/10 05:25:33;;;;;;;;;;;;;;;27.58;34.99;100121.91;5066191;28;1242;-40
2022/07/10 05:27:58;;;;;;;;;;;;;;;27.53;34.06;100116.31;5072404;28;1123;-40
2022/07/10 05:30:23;;;;;;;;;;;;;;;27.66;34.43;100126.31;5059686;28;1219;-40
2022/07/10 05:32:48;;;;;;;;;;;;;;;27.57;34.29;100134.59;5067974;28;1341;-37
2022/07/10 05:35:14;;;;;;;;;;;;;;;27.69;34.66;100125.94;5063783;28;1898;-40
2022/07/10 05:37:39;;;;;;;;;;;;;;;27.57;34.68;100125.66;5073993;28;1266;-38
2022/07/10 05:40:05;;;;;;;;;;;;;;;27.68;34.61;100124.22;5064500;28;1008;-39
2022/07/10 05:42:30;;;;;;;;;;;;;;;27.59;34.53;100137.91;5061187;28;921;-40
2022/07/10 05:44:55;;;;;;;;;;;;;;;27.71;34.61;100135.50;5060928;28;1079;-39
2022/07/10 05:47:21;;;;;;;;;;;;;;;27.65;34.67;100133.59;5067288;28;1076;-40
2022/07/10 05:49:46;;;;;;;;;;;;;;;27.72;34.23;100129.09;5060784;28;1143;-40
2022/07/10 05:52:12;;;;;;;;;;;;;;;27.67;34.63;100134.22;5070418;28;1076;-38
2022/07/10 05:54:37;;;;;;;;;;;;;;;27.73;34.38;100136.16;5060808;28;1327;-40
2022/07/10 05:57:03;;;;;;;;;;;;;;;27.71;35.08;100123.88;5057931;28;1897;-39
2022/07/10 05:59:28;;;;;;;;;;;;;;;27.80;34.74;100127.22;5060579;28;1219;-39
2022/07/10 06:01:54;;;;;;;;;;;;;;;27.75;35.06;100123.28;5066988;28;1151;-42
2022/07/10 06:04:19;;;;;;;;;;;;;;;27.80;35.41;100116.41;5057072;28;1481;-42
2022/07/10 06:06:44;;;;;;;;;;;;;;;27.99;35.31;100115.63;5067573;28;1214;-42
2022/07/10 06:09:09;;;;;;;;;;;;;;;27.85;34.72;100116.63;5058493;28;1331;-42
2022/07/10 06:11:35;;;;;;;;;;;;;;;27.81;34.97;100110.00;5068778;28;1144;-42
2022/07/10 06:14:00;;;;;;;;;;;;;;;27.91;34.83;100115.81;5061927;28;1511;-42
2022/07/10 06:16:26;;;;;;;;;;;;;;;27.86;34.86;100115.63;5061040;28;1909;-42
2022/07/10 06:18:51;;;;;;;;;;;;;;;27.94;34.53;100117.28;5061501;28;1351;-42
2022/07/10 06:21:21;;;;;;;;;;;;;;;27.86;35.03;100116.44;5069505;28;1064;-42
2022/07/10 06:23:46;;;;;;;;;;;;;;;27.91;35.31;100107.72;5063411;28;973;-42
2022/07/10 06:26:12;;;;;;;;;;;;;;;27.85;35.57;100108.53;5068650;28;1448;-44
2022/07/10 06:28:39;;;;;;;;;;;;;;;27.96;35.48;100107.13;5059192;28;1393;-43
2022/07/10 06:31:04;;;;;;;;;;;;;;;28.01;35.52;100110.00;5065825;28;944;-43
2022/07/10 06:33:29;;;;;;;;;;;;;;;28.06;35.49;100102.13;5063052;28;1147;-44
2022/07/10 06:35:55;;;;;;;;;;;;;;;27.87;35.23;100104.59;5062183;28;1890;-43
2022/07/10 06:38:20;;;;;;;;;;;;;;;27.93;35.33;100102.09;5057628;28;1594;-42
2022/07/10 06:40:45;;;;;;;;;;;;;;;28.01;35.00;100107.31;5062801;28;1140;-42
2022/07/10 06:43:11;;;;;;;;;;;;;;;27.94;34.69;100107.31;5062695;28;1200;-42
2022/07/10 06:45:36;;;;;;;;;;;;;;;28.19;34.74;100108.59;5064547;28;1305;-42
2022/07/10 06:48:01;;;;;;;;;;;;;;;28.09;34.80;100109.81;5069204;28;1649;-42
2022/07/10 06:50:34;;;;;;;;;;;;;;;28.17;34.56;100108.81;5060478;28;1008;-45
2022/07/10 06:52:59;;;;;;;;;;;;;;;27.97;35.22;100108.78;5064625;28;1246;-44
2022/07/10 06:55:25;;;;;;;;;;;;;;;27.95;35.23;100102.72;5057624;28;1964;-42
2022/07/10 06:57:50;;;;;;;;;;;;;;;28.16;35.40;100095.50;5064753;28;1191;-44
2022/07/10 07:00:15;;;;;;;;;;;;;;;27.96;35.47;100109.81;5067493;28;1222;-42
2022/07/10 07:02:41;;;;;;;;;;;;;;;28.13;35.39;100110.25;5056730;28;1064;-41
2022/07/10 07:05:07;;;;;;;;;;;;;;;28.07;34.93;100100.25;5064803;28;1016;-43
2022/07/10 07:07:32;;;;;;;;;;;;;;;28.06;35.47;100095.91;5058429;28;1100;-44
2022/07/10 07:09:58;;;;;;;;;;;;;;;28.21;34.90;100096.53;5069357;28;1008;-44
2022/07/10 07:12:23;;;;;;;;;;;;;;;28.03;35.45;100097.13;5061514;28;1142;-44
2022/07/10 07:14:48;;;;;;;;;;;;;;;28.29;35.47;100100.94;5068971;28;1012;-44
2022/07/10 07:17:20;;;;;;;;;;;;;;;28.17;35.01;100103.41;5059030;28;1906;-44
2022/07/10 07:25:13;;;;;;;;;;;;;;;28.10;35.33;100097.16;5060633;28;1223;-44
2022/07/10 07:27:39;;;;;;;;;;;;;;;28.31;35.37;100104.22;5062885;28;1210;-43
2022/07/10 07:30:06;;;;;;;;;;;;;;;28.21;35.50;100101.94;5057868;28;1286;-43
2022/07/10 07:32:31;;;;;;;;;;;;;;;28.11;35.42;100099.63;5057571;28;1496;-43
2022/07/10 07:34:56;;;;;;;;;;;;;;;28.31;35.46;100098.81;5059934;28;1246;-43
2022/07/10 07:37:21;;;;;;;;;;;;;;;28.20;35.39;100094.03;5062015;28;1894;-44
2022/07/10 07:39:47;;;;;;;;;;;;;;;28.18;35.38;100101.50;5060154;28;1508;-43
2022/07/10 07:42:12;;;;;;;;;;;;;;;28.31;35.54;100106.94;5062586;28;1075;-43
2022/07/10 07:44:37;;;;;;;;;;;;;;;28.41;35.50;100105.75;5059104;28;965;-43
2022/07/10 07:47:03;;;;;;;;;;;;;;;28.52;34.89;100098.88;5061917;28;1279;-43
2022/07/10 07:49:28;;;;;;;;;;;;;;;28.54;34.43;100110.31;5064615;28;1259;-43
2022/07/10 07:51:53;;;;;;;;;;;;;;;28.62;33.90;100104.69;5064458;28;1262;-43
2022/07/10 07:54:19;;;;;;;;;;;;;;;28.72;33.66;100106.97;5066886;28;1266;-43
2022/07/10 07:56:44;;;;;;;;;;;;;;;28.62;33.49;100098.44;5064078;28;1964;-43
2022/07/10 07:59:10;;;;;;;;;;;;;;;28.64;33.29;100104.50;5065558;28;1172;-43
2022/07/10 08:01:35;;;;;;;;;;;;;;;28.66;33.50;100102.41;5059914;28;1088;-43
2022/07/10 08:04:01;;;;;;;;;;;;;;;28.55;33.90;100098.44;5063148;28;1047;-43
2022/07/10 08:06:26;;;;;;;;;;;;;;;28.62;33.57;100102.00;5059117;28;1190;-43
2022/07/10 08:08:51;;;;;;;;;;;;;;;28.74;33.38;100104.91;5056030;28;1337;-43
2022/07/10 08:11:17;;;;;;;;;;;;;;;28.55;33.45;100093.88;5058485;28;1163;-43
2022/07/10 08:13:43;;;;;;;;;;;;;;;28.70;32.99;100100.94;5057151;28;1192;-43
2022/07/10 08:16:08;;;;;;;;;;;;;;;28.71;33.05;100103.44;5059380;28;1960;-44
2022/07/10 08:18:33;;;;;;;;;;;;;;;28.59;33.22;100111.34;5060638;28;1317;-44
2022/07/10 08:20:59;;;;;;;;;;;;;;;28.86;32.68;100110.50;5060826;28;1282;-44
2022/07/10 08:23:24;;;;;;;;;;;;;;;28.70;32.91;100109.06;5058345;28;1068;-44
2022/07/10 08:25:49;;;;;;;;;;;;;;;28.69;33.03;100116.38;5063701;28;1044;-44
2022/07/10 08:28:15;;;;;;;;;;;;;;;28.76;32.59;100107.41;5060814;28;1241;-44
2022/07/10 08:30:41;;;;;;;;;;;;;;;28.52;32.94;100106.97;5058857;28;1266;-44
2022/07/10 08:33:07;;;;;;;;;;;;;;;28.43;32.94;100111.75;5057517;28;1364;-43
2022/07/10 08:35:32;;;;;;;;;;;;;;;28.62;33.08;100107.41;5059585;28;1965;-44
2022/07/10 08:37:57;;;;;;;;;;;;;;;28.48;33.55;100115.53;5061152;28;1289;-44
2022/07/10 08:40:23;;;;;;;;;;;;;;;28.33;33.43;100113.00;5062891;28;1239;-44
2022/07/10 08:42:48;;;;;;;;;;;;;;;28.53;34.00;100112.19;5059530;28;1218;-42
2022/07/10 08:45:13;;;;;;;;;;;;;;;28.36;33.90;100112.59;5062201;28;1037;-44
2022/07/10 08:47:41;;;;;;;;;;;;;;;28.32;34.03;100108.63;5058735;28;1331;-42
2022/07/10 08:50:16;;;;;;;;;;;;;;;28.59;34.37;100111.34;5058263;28;1191;-42
2022/07/10 08:52:42;;;;;;;;;;;;;;;28.37;34.26;100102.63;5059298;28;1203;-44
2022/07/10 08:55:08;;;;;;;;;;;;;;;28.32;34.21;100105.06;5062154;28;1255;-42
2022/07/10 08:57:33;;;;;;;;;;;;;;;28.60;34.45;100117.59;5062582;28;1922;-42
2022/07/10 08:59:59;;;;;;;;;;;;;;;28.58;34.06;100106.13;5066331;28;1174;-42
2022/07/10 09:02:24;;;;;;;;;;;;;;;28.41;34.41;100116.56;5066977;28;1120;-42
2022/07/10 09:04:49;;;;;;;;;;;;;;;28.54;34.46;100113.03;5065323;28;1361;-42
2022/07/10 09:07:15;;;;;;;;;;;;;;;28.61;34.63;100124.69;5064914;28;1085;-43
2022/07/10 09:09:56;;;;;;;;;;;;;;;28.66;34.31;100102.41;5064323;28;957;-43
2022/07/10 09:12:21;;;;;;;;;;;;;;;28.70;33.73;100109.06;5063602;28;1178;-43
2022/07/10 09:14:47;;;;;;;;;;;;;;;28.58;35.21;100138.63;5065582;28;983;-43
2022/07/10 09:17:12;;;;;;;;;;;;;;;28.76;34.26;100107.41;5065985;28;1934;-43
2022/07/10 09:19:37;;;;;;;;;;;;;;;28.81;34.16;100115.72;5063977;28;1087;-43
2022/07/10 09:22:05;;;;;;;;;;;;;;;28.98;33.43;100099.06;5067339;28;1149;-43
2022/07/10 09:24:37;;;;;;;;;;;;;;;28.97;32.38;100117.19;5060289;28;1191;-43
2022/07/10 09:27:05;;;;;;;;;;;;;;;28.72;32.08;100109.69;5060205;28;1254;-43
2022/07/10 09:29:31;;;;;;;;;;;;;;;28.75;32.75;100100.31;5060937;28;1158;-43
2022/07/10 09:32:00;;;;;;;;;;;;;;;28.72;33.13;100106.97;5065907;28;1293;-43
2022/07/10 09:34:39;;;;;;;;;;;;;;;28.66;33.19;100097.81;5069173;28;1325;-43
2022/07/10 09:37:23;;;;;;;;;;;;;;;28.75;33.36;100094.88;5058969;28;1894;-43
2022/07/10 09:39:54;;;;;;;;;;;;;;;28.65;33.30;100088.03;5061717;28;1530;-43
2022/07/10 09:42:26;;;;;;;;;;;;;;;28.50;33.76;100077.44;5064653;28;1306;-43
2022/07/10 09:44:52;;;;;;;;;;;;;;;28.51;33.45;100092.63;5067680;28;962;-43
2022/07/10 09:47:23;;;;;;;;;;;;;;;28.68;33.78;100079.50;5067971;28;1012;-43
2022/07/10 09:49:48;;;;;;;;;;;;;;;28.56;34.11;100086.59;5067316;28;1001;-43
2022/07/10 09:52:14;;;;;;;;;;;;;;;28.39;34.06;100069.94;5062349;28;1274;-43
2022/07/10 09:54:39;;;;;;;;;;;;;;;28.54;34.37;100076.00;5067264;28;1008;-43
2022/07/10 09:57:05;;;;;;;;;;;;;;;28.56;34.10;100073.88;5058093;28;1897;-43
2022/07/10 09:59:31;;;;;;;;;;;;;;;28.43;34.48;100077.44;5071162;28;1115;-43
2022/07/10 10:01:56;;;;;;;;;;;;;;;28.46;34.14;100074.31;5058524;28;1236;-43
2022/07/10 10:04:24;;;;;;;;;;;;;;;28.73;34.23;100074.28;5067603;28;1313;-43
2022/07/10 10:06:50;;;;;;;;;;;;;;;28.58;34.39;100060.13;5066395;28;1067;-43
2022/07/10 10:09:37;;;;;;;;;;;;;;;28.48;34.38;100066.81;5065689;28;1134;-42
2022/07/10 10:12:02;;;;;;;;;;;;;;;28.51;34.30;100064.75;5064979;28;1218;-43
2022/07/10 10:14:28;;;;;;;;;;;;;;;28.73;34.32;100068.88;5065570;28;1152;-43
2022/07/10 10:16:53;;;;;;;;;;;;;;;28.48;34.84;100055.16;5058533;28;1910;-43
2022/07/10 10:22:02;;;;;;;;;;;;;;;28.72;34.77;100056.41;5070123;28;1008;-43
2022/07/10 10:24:28;;;;;;;;;;;;;;;28.76;34.49;100062.19;5067099;28;1035;-43
2022/07/10 10:26:54;;;;;;;;;;;;;;;28.64;34.79;100053.06;5063284;28;1160;-43
2022/07/10 10:29:19;;;;;;;;;;;;;;;28.47;34.21;100054.34;5057456;28;1148;-43
2022/07/10 10:31:44;;;;;;;;;;;;;;;28.75;34.41;100063.25;5059862;28;1339;-43
2022/07/10 10:34:10;;;;;;;;;;;;;;;28.76;34.32;100073.03;5057368;28;1551;-43
2022/07/10 10:36:44;;;;;;;;;;;;;;;28.79;34.51;100069.09;5056660;28;1898;-42
2022/07/10 10:39:10;;;;;;;;;;;;;;;28.62;34.79;100049.75;5060385;28;1539;-43
2022/07/10 10:41:38;;;;;;;;;;;;;;;28.84;34.94;100074.69;5067395;28;1091;-42
2022/07/10 10:44:07;;;;;;;;;;;;;;;28.76;34.59;100069.50;5057285;28;1214;-43
2022/07/10 10:46:32;;;;;;;;;;;;;;;28.52;34.72;100058.28;5058871;28;1190;-43
2022/07/10 10:49:04;;;;;;;;;;;;;;;28.46;34.79;100059.97;5063579;28;1246;-43
2022/07/10 10:51:55;;;;;;;;;;;;;;;28.59;34.52;100059.94;5060929;28;1230;-43
2022/07/10 10:54:21;;;;;;;;;;;;;;;28.79;34.55;100060.97;5059380;28;1215;-43
2022/07/10 10:56:53;;;;;;;;;;;;;;;28.54;34.65;100054.34;5061128;28;1901;-43
2022/07/10 10:59:37;;;;;;;;;;;;;;;28.51;34.71;100056.63;5055700;28;1305;-43
2022/07/10 11:02:21;;;;;;;;;;;;;;;28.55;34.94;100068.69;5064271;28;1238;-43
2022/07/10 11:04:46;;;;;;;;;;;;;;;28.76;34.93;100062.19;5064472;28;1239;-43
2022/07/10 11:07:11;;;;;;;;;;;;;;;27.95;34.71;99972.97;5062384;28;1500;-43
2022/07/10 11:09:38;;;;;;;;;;;;;;;28.62;34.62;100057.84;5067928;28;1570;-43
2022/07/10 11:12:04;;;;;;;;;;;;;;;28.60;34.62;100058.06;5067580;28;1254;-43
2022/07/10 11:14:30;;;;;;;;;;;;;;;28.81;35.23;100056.19;5063968;28;1199;-43
2022/07/10 11:16:56;;;;;;;;;;;;;;;28.67;34.71;100050.78;5063722;28;1999;-43
2022/07/10 11:19:25;;;;;;;;;;;;;;;28.62;34.81;100060.56;5067867;28;1305;-43
2022/07/10 11:21:54;;;;;;;;;;;;;;;28.60;34.79;100050.78;5065475;28;1231;-43
2022/07/10 11:24:33;;;;;;;;;;;;;;;28.71;34.58;100060.13;5060675;28;997;-43
2022/07/10 11:27:02;;;;;;;;;;;;;;;28.87;35.11;100043.66;5058685;28;1000;-43
2022/07/10 11:29:27;;;;;;;;;;;;;;;28.75;34.46;100047.00;5057284;28;1242;-43
2022/07/10 11:31:53;;;;;;;;;;;;;;;28.57;34.70;100048.50;5056932;28;1217;-42
2022/07/10 11:34:18;;;;;;;;;;;;;;;28.52;34.73;100050.16;5059003;28;1281;-45
2022/07/10 11:36:44;;;;;;;;;;;;;;;28.70;34.77;100065.75;5062677;28;1906;-42
2022/07/10 11:39:09;;;;;;;;;;;;;;;28.83;34.71;100062.19;5058286;28;1354;-42
2022/07/10 11:41:41;;;;;;;;;;;;;;;28.68;34.96;100059.72;5061804;28;901;-42
2022/07/10 11:44:07;;;;;;;;;;;;;;;28.59;34.68;100062.63;5062179;28;1008;-42
2022/07/10 11:46:33;;;;;;;;;;;;;;;28.60;34.67;100047.25;5066808;28;1078;-42
2022/07/10 11:48:58;;;;;;;;;;;;;;;28.56;34.82;100056.84;5066045;28;1025;-42
2022/07/10 11:51:30;;;;;;;;;;;;;;;28.67;34.96;100042.66;5061075;28;1202;-42
2022/07/10 11:54:12;;;;;;;;;;;;;;;28.81;34.86;100061.59;5074924;28;817;-42
2022/07/10 11:56:39;;;;;;;;;;;;;;;28.63;34.98;100059.53;5062182;28;1906;-42
2022/07/10 11:59:04;;;;;;;;;;;;;;;28.63;34.85;100057.66;5062737;28;1059;-42
2022/07/10 12:01:33;;;;;;;;;;;;;;;28.59;34.56;100061.81;5069137;28;1214;-42
2022/07/10 12:04:05;;;;;;;;;;;;;;;28.59;34.55;100062.63;5062031;28;989;-42
2022/07/10 12:06:32;;;;;;;;;;;;;;;28.79;35.21;100055.53;5056349;28;985;-42
2022/07/10 12:09:07;;;;;;;;;;;;;;;28.93;35.26;100050.91;5069047;28;853;-42
2022/07/10 12:11:33;;;;;;;;;;;;;;;28.91;34.12;100048.41;5065774;28;1060;-42
2022/07/10 12:14:12;;;;;;;;;;;;;;;28.71;33.96;100048.50;5062724;28;973;-42
2022/07/10 12:16:37;;;;;;;;;;;;;;;28.68;34.60;100040.78;5062789;28;1906;-42
2022/07/10 12:19:03;;;;;;;;;;;;;;;29.00;34.59;100051.78;5068369;28;847;-43
2022/07/10 12:21:29;;;;;;;;;;;;;;;28.73;34.58;100052.63;5061336;28;1083;-42
2022/07/10 12:23:54;;;;;;;;;;;;;;;28.81;34.44;100054.28;5068809;28;1075;-42
2022/07/10 12:26:20;;;;;;;;;;;;;;;28.94;34.20;100053.44;5062879;28;1012;-42
2022/07/10 12:28:49;;;;;;;;;;;;;;;28.69;34.75;100043.28;5056771;28;1115;-42
2022/07/10 12:31:19;;;;;;;;;;;;;;;28.63;34.62;100041.41;5062027;28;992;-42
2022/07/10 12:33:45;;;;;;;;;;;;;;;28.76;34.57;100048.66;5064026;28;1100;-42
2022/07/10 12:36:10;;;;;;;;;;;;;;;28.61;34.40;100046.22;5067210;28;2041;-42
2022/07/10 12:38:35;;;;;;;;;;;;;;;28.67;34.97;100049.94;5067226;28;1101;-42
2022/07/10 12:41:07;;;;;;;;;;;;;;;28.87;34.86;100047.19;5066842;28;1076;-42
2022/07/10 12:43:33;;;;;;;;;;;;;;;28.64;34.83;100048.50;5063793;28;977;-42
2022/07/10 12:46:08;;;;;;;;;;;;;;;28.62;34.79;100047.88;5062277;28;1023;-42
2022/07/10 12:48:34;;;;;;;;;;;;;;;28.61;35.00;100043.50;5063700;28;1008;-41
2022/07/10 12:51:18;;;;;;;;;;;;;;;28.81;35.14;100039.94;5070861;28;1147;-42
2022/07/10 12:53:46;;;;;;;;;;;;;;;28.83;34.78;100038.66;5057595;28;1040;-42
2022/07/10 12:56:26;;;;;;;;;;;;;;;28.79;34.40;100033.91;5069087;28;1965;-42